Terminal Aerodrome Forecast
Issued by NWS South Bend, IN

Home | Current Version | Previous Version | Graphics & Text | Print | Product List | Glossary Off
Versions: 1 2 3 4 5 6 7 8 9 10 11 12 13 14 15 16 17 18 19 20

000
FTUS43 KIWX 060500
TAFSBN
TAF
KSBN 060537Z 0606/0706 10007KT 4SM BR OVC003
     FM060800 VRB03KT 1SM BR OVC003
     FM061300 15005KT 4SM BR OVC006
     FM061600 17007KT P6SM BKN025
     FM061900 20008KT P6SM SCT035=

USA.gov is the U.S. government's official web portal to all federal, state and local government web resources and services.